sensor_id;sensor_type;location;lat;lon;timestamp;pressure;altitude;pressure_sealevel;temperature;humidity
75414;BME280;64758;52.122;5.404;2023-07-20T00:02:26;101655.00;;;16.29;100.00
75414;BME280;64758;52.122;5.404;2023-07-20T00:04:52;101653.53;;;16.27;100.00
75414;BME280;64758;52.122;5.404;2023-07-20T00:07:19;101656.44;;;16.25;100.00
75414;BME280;64758;52.122;5.404;2023-07-20T00:09:45;101665.09;;;16.27;100.00
75414;BME280;64758;52.122;5.404;2023-07-20T00:12:13;101658.28;;;16.25;100.00
75414;BME280;64758;52.122;5.404;2023-07-20T00:14:40;101646.13;;;16.22;100.00
75414;BME280;64758;52.122;5.404;2023-07-20T00:17:06;101656.22;;;16.20;100.00
75414;BME280;64758;52.122;5.404;2023-07-20T00:19:33;101654.13;;;16.16;100.00
75414;BME280;64758;52.122;5.404;2023-07-20T00:22:01;101649.38;;;16.11;100.00
75414;BME280;64758;52.122;5.404;2023-07-20T00:24:28;101654.75;;;16.11;100.00
75414;BME280;64758;52.122;5.404;2023-07-20T00:26:54;101657.00;;;16.08;100.00
75414;BME280;64758;52.122;5.404;2023-07-20T00:29:21;101651.84;;;16.06;100.00
75414;BME280;64758;52.122;5.404;2023-07-20T00:31:47;101655.16;;;16.08;100.00
75414;BME280;64758;52.122;5.404;2023-07-20T00:34:17;101647.06;;;16.02;100.00
75414;BME280;64758;52.122;5.404;2023-07-20T00:36:43;101651.81;;;16.00;100.00
75414;BME280;64758;52.122;5.404;2023-07-20T00:39:10;101651.41;;;15.96;100.00
75414;BME280;64758;52.122;5.404;2023-07-20T00:41:36;101650.78;;;15.94;100.00
75414;BME280;64758;52.122;5.404;2023-07-20T00:44:04;101652.19;;;15.90;100.00
75414;BME280;64758;52.122;5.404;2023-07-20T00:46:31;101650.94;;;15.86;100.00
75414;BME280;64758;52.122;5.404;2023-07-20T00:48:59;101647.41;;;15.79;100.00
75414;BME280;64758;52.122;5.404;2023-07-20T00:51:27;101650.50;;;15.76;100.00
75414;BME280;64758;52.122;5.404;2023-07-20T00:53:53;101649.25;;;15.72;100.00
75414;BME280;64758;52.122;5.404;2023-07-20T00:56:21;101650.28;;;15.71;100.00
75414;BME280;64758;52.122;5.404;2023-07-20T00:58:49;101647.53;;;15.65;100.00
75414;BME280;64758;52.122;5.404;2023-07-20T01:01:16;101655.78;;;15.63;100.00
75414;BME280;64758;52.122;5.404;2023-07-20T01:03:42;101654.53;;;15.59;100.00
75414;BME280;64758;52.122;5.404;2023-07-20T01:14:13;101660.63;;;15.40;100.00
75414;BME280;64758;52.122;5.404;2023-07-20T01:16:40;101655.66;;;15.37;100.00
75414;BME280;64758;52.122;5.404;2023-07-20T01:19:07;101655.03;;;15.35;100.00
75414;BME280;64758;52.122;5.404;2023-07-20T01:21:40;101647.31;;;15.26;100.00
75414;BME280;64758;52.122;5.404;2023-07-20T01:26:57;101653.47;;;15.20;100.00
75414;BME280;64758;52.122;5.404;2023-07-20T01:32:09;101652.91;;;15.04;100.00
75414;BME280;64758;52.122;5.404;2023-07-20T01:34:37;101653.28;;;14.94;100.00
75414;BME280;64758;52.122;5.404;2023-07-20T01:37:06;101659.81;;;14.92;100.00
75414;BME280;64758;52.122;5.404;2023-07-20T01:39:34;101665.19;;;14.92;100.00
75414;BME280;64758;52.122;5.404;2023-07-20T01:42:01;101659.59;;;14.87;100.00
75414;BME280;64758;52.122;5.404;2023-07-20T01:44:28;101650.91;;;14.85;100.00
75414;BME280;64758;52.122;5.404;2023-07-20T01:46:55;101657.69;;;14.81;100.00
75414;BME280;64758;52.122;5.404;2023-07-20T01:49:22;101651.44;;;14.74;100.00
75414;BME280;64758;52.122;5.404;2023-07-20T01:51:48;101663.53;;;14.70;100.00
75414;BME280;64758;52.122;5.404;2023-07-20T01:54:15;101660.00;;;14.63;100.00
75414;BME280;64758;52.122;5.404;2023-07-20T01:56:41;101666.31;;;14.55;100.00
75414;BME280;64758;52.122;5.404;2023-07-20T01:59:08;101676.16;;;14.55;100.00
75414;BME280;64758;52.122;5.404;2023-07-20T02:01:34;101674.63;;;14.46;100.00
75414;BME280;64758;52.122;5.404;2023-07-20T02:04:01;101671.78;;;14.47;100.00
75414;BME280;64758;52.122;5.404;2023-07-20T02:06:28;101672.16;;;14.44;100.00
75414;BME280;64758;52.122;5.404;2023-07-20T02:08:54;101676.66;;;14.44;100.00
75414;BME280;64758;52.122;5.404;2023-07-20T02:11:21;101667.19;;;14.41;100.00
75414;BME280;64758;52.122;5.404;2023-07-20T02:13:47;101669.88;;;14.41;100.00
75414;BME280;64758;52.122;5.404;2023-07-20T02:16:14;101670.69;;;14.42;100.00
75414;BME280;64758;52.122;5.404;2023-07-20T02:18:40;101674.38;;;14.41;100.00
75414;BME280;64758;52.122;5.404;2023-07-20T02:21:07;101675.41;;;14.40;100.00
75414;BME280;64758;52.122;5.404;2023-07-20T02:23:33;101666.75;;;14.38;100.00
75414;BME280;64758;52.122;5.404;2023-07-20T02:26:01;101672.53;;;14.41;100.00
75414;BME280;64758;52.122;5.404;2023-07-20T02:28:27;101674.38;;;14.41;100.00
75414;BME280;64758;52.122;5.404;2023-07-20T02:30:55;101660.59;;;14.37;100.00
75414;BME280;64758;52.122;5.404;2023-07-20T02:33:21;101678.44;;;14.37;100.00
75414;BME280;64758;52.122;5.404;2023-07-20T02:35:48;101674.31;;;14.34;100.00
75414;BME280;64758;52.122;5.404;2023-07-20T02:38:15;101669.16;;;14.33;100.00
75414;BME280;64758;52.122;5.404;2023-07-20T02:40:41;101663.38;;;14.29;100.00
75414;BME280;64758;52.122;5.404;2023-07-20T02:43:08;101668.91;;;14.28;100.00
75414;BME280;64758;52.122;5.404;2023-07-20T02:45:40;101668.09;;;14.27;100.00
75414;BME280;64758;52.122;5.404;2023-07-20T02:48:06;101657.50;;;14.19;100.00
75414;BME280;64758;52.122;5.404;2023-07-20T02:50:34;101666.09;;;14.15;100.00
75414;BME280;64758;52.122;5.404;2023-07-20T02:53:02;101675.97;;;14.14;100.00
75414;BME280;64758;52.122;5.404;2023-07-20T02:55:28;101673.81;;;14.10;100.00
75414;BME280;64758;52.122;5.404;2023-07-20T02:57:55;101675.84;;;14.08;100.00
75414;BME280;64758;52.122;5.404;2023-07-20T03:00:21;101681.50;;;13.98;100.00
75414;BME280;64758;52.122;5.404;2023-07-20T03:02:50;101686.47;;;14.01;100.00
75414;BME280;64758;52.122;5.404;2023-07-20T03:05:19;101682.06;;;13.94;100.00
75414;BME280;64758;52.122;5.404;2023-07-20T03:07:46;101688.97;;;13.89;100.00
75414;BME280;64758;52.122;5.404;2023-07-20T03:10:12;101705.56;;;13.84;100.00
75414;BME280;64758;52.122;5.404;2023-07-20T03:12:39;101695.91;;;13.83;100.00
75414;BME280;64758;52.122;5.404;2023-07-20T03:15:06;101701.41;;;13.82;100.00
75414;BME280;64758;52.122;5.404;2023-07-20T03:17:33;101702.34;;;13.74;100.00
75414;BME280;64758;52.122;5.404;2023-07-20T03:20:00;101714.41;;;13.70;100.00
75414;BME280;64758;52.122;5.404;2023-07-20T03:22:27;101721.03;;;13.74;100.00
75414;BME280;64758;52.122;5.404;2023-07-20T03:24:53;101721.22;;;13.73;100.00
75414;BME280;64758;52.122;5.404;2023-07-20T03:27:20;101716.78;;;13.80;100.00
75414;BME280;64758;52.122;5.404;2023-07-20T03:29:47;101717.91;;;13.71;100.00
75414;BME280;64758;52.122;5.404;2023-07-20T03:32:13;101716.53;;;13.60;100.00
75414;BME280;64758;52.122;5.404;2023-07-20T03:34:40;101712.09;;;13.53;100.00
75414;BME280;64758;52.122;5.404;2023-07-20T03:37:07;101704.66;;;13.48;100.00
75414;BME280;64758;52.122;5.404;2023-07-20T03:39:33;101704.38;;;13.43;100.00
75414;BME280;64758;52.122;5.404;2023-07-20T03:42:00;101709.16;;;13.48;100.00
75414;BME280;64758;52.122;5.404;2023-07-20T03:44:26;101714.41;;;13.41;100.00
75414;BME280;64758;52.122;5.404;2023-07-20T03:46:53;101720.84;;;13.32;100.00
75414;BME280;64758;52.122;5.404;2023-07-20T03:49:20;101718.53;;;13.29;100.00
75414;BME280;64758;52.122;5.404;2023-07-20T03:51:46;101719.53;;;13.28;100.00
75414;BME280;64758;52.122;5.404;2023-07-20T03:54:13;101732.69;;;13.30;100.00
75414;BME280;64758;52.122;5.404;2023-07-20T03:56:39;101718.53;;;13.29;100.00
75414;BME280;64758;52.122;5.404;2023-07-20T03:59:06;101722.84;;;13.30;100.00
75414;BME280;64758;52.122;5.404;2023-07-20T04:01:32;101727.34;;;13.30;100.00
75414;BME280;64758;52.122;5.404;2023-07-20T04:04:06;101721.19;;;13.29;100.00
75414;BME280;64758;52.122;5.404;2023-07-20T04:06:34;101734.34;;;13.31;100.00
75414;BME280;64758;52.122;5.404;2023-07-20T04:09:00;101729.22;;;13.29;100.00
75414;BME280;64758;52.122;5.404;2023-07-20T04:11:27;101732.59;;;13.23;100.00
75414;BME280;64758;52.122;5.404;2023-07-20T04:13:54;101725.31;;;13.17;100.00
75414;BME280;64758;52.122;5.404;2023-07-20T04:16:22;101730.00;;;13.15;100.00
75414;BME280;64758;52.122;5.404;2023-07-20T04:18:49;101734.50;;;13.15;100.00
75414;BME280;64758;52.122;5.404;2023-07-20T04:21:16;101739.75;;;13.08;100.00
75414;BME280;64758;52.122;5.404;2023-07-20T04:23:42;101735.41;;;13.07;100.00
75414;BME280;64758;52.122;5.404;2023-07-20T04:26:09;101747.75;;;13.08;100.00
75414;BME280;64758;52.122;5.404;2023-07-20T04:28:38;101741.19;;;13.11;100.00
75414;BME280;64758;52.122;5.404;2023-07-20T04:31:13;101746.00;;;13.15;100.00
75414;BME280;64758;52.122;5.404;2023-07-20T04:33:40;101743.72;;;13.12;100.00
75414;BME280;64758;52.122;5.404;2023-07-20T04:36:07;101749.03;;;13.12;100.00
75414;BME280;64758;52.122;5.404;2023-07-20T04:38:34;101746.53;;;13.11;100.00
75414;BME280;64758;52.122;5.404;2023-07-20T04:41:00;101751.06;;;13.10;100.00
75414;BME280;64758;52.122;5.404;2023-07-20T04:43:29;101755.81;;;13.00;100.00
75414;BME280;64758;52.122;5.404;2023-07-20T04:45:55;101760.50;;;12.98;100.00
75414;BME280;64758;52.122;5.404;2023-07-20T04:48:22;101755.16;;;12.98;100.00
75414;BME280;64758;52.122;5.404;2023-07-20T04:50:48;101765.34;;;12.95;100.00
75414;BME280;64758;52.122;5.404;2023-07-20T04:53:15;101759.19;;;12.94;100.00
75414;BME280;64758;52.122;5.404;2023-07-20T04:55:48;101755.19;;;12.90;100.00
75414;BME280;64758;52.122;5.404;2023-07-20T04:58:20;101758.47;;;13.00;100.00
75414;BME280;64758;52.122;5.404;2023-07-20T05:00:50;101749.41;;;13.09;100.00
75414;BME280;64758;52.122;5.404;2023-07-20T05:03:17;101753.28;;;13.21;100.00
75414;BME280;64758;52.122;5.404;2023-07-20T05:05:44;101761.50;;;13.34;100.00
75414;BME280;64758;52.122;5.404;2023-07-20T05:08:14;101757.56;;;13.45;100.00
75414;BME280;64758;52.122;5.404;2023-07-20T05:10:40;101757.97;;;13.56;100.00
75414;BME280;64758;52.122;5.404;2023-07-20T05:13:07;101756.84;;;13.65;100.00
75414;BME280;64758;52.122;5.404;2023-07-20T05:15:34;101752.06;;;13.75;100.00
75414;BME280;64758;52.122;5.404;2023-07-20T05:18:03;101746.44;;;13.85;100.00
75414;BME280;64758;52.122;5.404;2023-07-20T05:20:30;101749.50;;;13.96;100.00
75414;BME280;64758;52.122;5.404;2023-07-20T05:22:58;101747.97;;;14.08;100.00
75414;BME280;64758;52.122;5.404;2023-07-20T05:25:25;101749.19;;;14.20;100.00
75414;BME280;64758;52.122;5.404;2023-07-20T05:27:55;101754.50;;;14.34;100.00
75414;BME280;64758;52.122;5.404;2023-07-20T05:30:21;101756.06;;;14.43;100.00
75414;BME280;64758;52.122;5.404;2023-07-20T05:32:48;101755.56;;;14.54;100.00
75414;BME280;64758;52.122;5.404;2023-07-20T05:35:18;101760.59;;;14.64;100.00
75414;BME280;64758;52.122;5.404;2023-07-20T05:37:45;101750.78;;;14.71;100.00
75414;BME280;64758;52.122;5.404;2023-07-20T05:40:12;101766.97;;;14.84;100.00
75414;BME280;64758;52.122;5.404;2023-07-20T05:42:39;101755.50;;;14.90;100.00
75414;BME280;64758;52.122;5.404;2023-07-20T05:45:06;101767.72;;;14.99;100.00
75414;BME280;64758;52.122;5.404;2023-07-20T05:47:33;101757.75;;;15.07;100.00
75414;BME280;64758;52.122;5.404;2023-07-20T05:50:00;101749.38;;;15.17;100.00
75414;BME280;64758;52.122;5.404;2023-07-20T05:52:26;101756.25;;;15.26;100.00
75414;BME280;64758;52.122;5.404;2023-07-20T05:54:53;101754.25;;;15.34;100.00
75414;BME280;64758;52.122;5.404;2023-07-20T05:57:20;101745.91;;;15.43;100.00
75414;BME280;64758;52.122;5.404;2023-07-20T05:59:46;101748.84;;;15.55;100.00
75414;BME280;64758;52.122;5.404;2023-07-20T06:02:13;101748.53;;;15.64;100.00
75414;BME280;64758;52.122;5.404;2023-07-20T06:04:40;101747.34;;;15.73;100.00
75414;BME280;64758;52.122;5.404;2023-07-20T06:07:06;101754.19;;;15.82;100.00
75414;BME280;64758;52.122;5.404;2023-07-20T06:09:34;101748.84;;;15.89;100.00
75414;BME280;64758;52.122;5.404;2023-07-20T06:12:01;101758.78;;;15.95;100.00
75414;BME280;64758;52.122;5.404;2023-07-20T06:14:27;101759.66;;;16.02;100.00
75414;BME280;64758;52.122;5.404;2023-07-20T06:16:54;101767.97;;;16.13;100.00
75414;BME280;64758;52.122;5.404;2023-07-20T06:19:20;101768.81;;;16.20;100.00
75414;BME280;64758;52.122;5.404;2023-07-20T06:21:48;101764.53;;;16.32;100.00
75414;BME280;64758;52.122;5.404;2023-07-20T06:24:16;101763.38;;;16.41;100.00
75414;BME280;64758;52.122;5.404;2023-07-20T06:26:43;101765.84;;;16.43;99.96
75414;BME280;64758;52.122;5.404;2023-07-20T06:29:10;101773.91;;;16.49;99.18
75414;BME280;64758;52.122;5.404;2023-07-20T06:31:37;101767.75;;;16.55;98.82
75414;BME280;64758;52.122;5.404;2023-07-20T06:34:03;101766.72;;;16.63;97.54
75414;BME280;64758;52.122;5.404;2023-07-20T06:36:30;101775.59;;;16.69;96.11
75414;BME280;64758;52.122;5.404;2023-07-20T06:38:57;101767.56;;;16.76;95.95
75414;BME280;64758;52.122;5.404;2023-07-20T06:41:26;101772.97;;;16.82;95.18
75414;BME280;64758;52.122;5.404;2023-07-20T06:43:56;101767.59;;;16.82;93.49
75414;BME280;64758;52.122;5.404;2023-07-20T06:46:25;101775.00;;;16.80;90.93
75414;BME280;64758;52.122;5.404;2023-07-20T06:48:53;101785.75;;;16.87;90.81
75414;BME280;64758;52.122;5.404;2023-07-20T06:51:23;101782.91;;;17.01;90.05
75414;BME280;64758;52.122;5.404;2023-07-20T06:53:49;101786.41;;;17.15;89.34
75414;BME280;64758;52.122;5.404;2023-07-20T06:56:16;101791.56;;;17.23;87.08
75414;BME280;64758;52.122;5.404;2023-07-20T06:58:43;101784.59;;;17.35;86.66
75414;BME280;64758;52.122;5.404;2023-07-20T07:01:09;101785.00;;;17.51;86.99
75414;BME280;64758;52.122;5.404;2023-07-20T07:03:36;101787.28;;;17.54;85.88
75414;BME280;64758;52.122;5.404;2023-07-20T07:06:03;101791.59;;;17.49;85.51
75414;BME280;64758;52.122;5.404;2023-07-20T07:08:30;101792.44;;;17.43;86.28
75414;BME280;64758;52.122;5.404;2023-07-20T07:10:56;101786.84;;;17.51;85.93
75414;BME280;64758;52.122;5.404;2023-07-20T07:13:23;101783.97;;;17.46;86.53
75414;BME280;64758;52.122;5.404;2023-07-20T07:15:50;101786.44;;;17.41;86.00
75414;BME280;64758;52.122;5.404;2023-07-20T07:18:17;101796.38;;;17.34;84.71
75414;BME280;64758;52.122;5.404;2023-07-20T07:20:50;101784.34;;;17.23;84.82
75414;BME280;64758;52.122;5.404;2023-07-20T07:23:17;101791.38;;;17.24;86.15
75414;BME280;64758;52.122;5.404;2023-07-20T07:25:45;101790.34;;;17.25;85.30
75414;BME280;64758;52.122;5.404;2023-07-20T07:28:12;101793.69;;;17.34;85.25
75414;BME280;64758;52.122;5.404;2023-07-20T07:30:38;101781.91;;;17.54;84.40
75414;BME280;64758;52.122;5.404;2023-07-20T07:33:05;101792.81;;;17.79;83.03
75414;BME280;64758;52.122;5.404;2023-07-20T07:35:32;101786.38;;;17.92;81.07
75414;BME280;64758;52.122;5.404;2023-07-20T07:37:59;101787.38;;;18.04;79.24
75414;BME280;64758;52.122;5.404;2023-07-20T07:40:44;101780.72;;;18.13;80.07
75414;BME280;64758;52.122;5.404;2023-07-20T07:43:11;101783.41;;;18.26;80.32
75414;BME280;64758;52.122;5.404;2023-07-20T07:45:38;101792.22;;;18.40;76.28
75414;BME280;64758;52.122;5.404;2023-07-20T07:48:06;101779.56;;;18.53;76.11
75414;BME280;64758;52.122;5.404;2023-07-20T07:50:33;101794.41;;;18.62;72.66
75414;BME280;64758;52.122;5.404;2023-07-20T07:53:00;101799.50;;;18.77;71.80
75414;BME280;64758;52.122;5.404;2023-07-20T07:55:26;101790.72;;;18.94;73.34
75414;BME280;64758;52.122;5.404;2023-07-20T07:57:54;101785.88;;;19.03;74.78
75414;BME280;64758;52.122;5.404;2023-07-20T08:00:21;101785.16;;;19.14;74.06
75414;BME280;64758;52.122;5.404;2023-07-20T08:02:47;101788.00;;;18.94;73.25
75414;BME280;64758;52.122;5.404;2023-07-20T08:05:17;101784.63;;;18.74;73.42
75414;BME280;64758;52.122;5.404;2023-07-20T08:07:44;101788.59;;;18.65;73.33
75414;BME280;64758;52.122;5.404;2023-07-20T08:10:11;101791.56;;;18.51;73.93
75414;BME280;64758;52.122;5.404;2023-07-20T08:12:38;101796.81;;;18.33;72.43
75414;BME280;64758;52.122;5.404;2023-07-20T08:15:05;101785.06;;;18.14;72.38
75414;BME280;64758;52.122;5.404;2023-07-20T08:17:31;101785.50;;;18.11;72.93
75414;BME280;64758;52.122;5.404;2023-07-20T08:19:58;101779.50;;;18.09;73.20
75414;BME280;64758;52.122;5.404;2023-07-20T08:22:25;101784.88;;;18.03;73.95
75414;BME280;64758;52.122;5.404;2023-07-20T08:24:52;101792.38;;;17.94;74.18
75414;BME280;64758;52.122;5.404;2023-07-20T08:27:19;101795.06;;;17.88;74.49
75414;BME280;64758;52.122;5.404;2023-07-20T08:29:45;101793.94;;;18.15;74.77
75414;BME280;64758;52.122;5.404;2023-07-20T08:32:12;101786.47;;;18.36;73.30
75414;BME280;64758;52.122;5.404;2023-07-20T08:34:41;101785.19;;;18.45;63.45
75414;BME280;64758;52.122;5.404;2023-07-20T08:37:08;101792.34;;;18.64;62.42
75414;BME280;64758;52.122;5.404;2023-07-20T08:39:36;101785.00;;;18.78;59.37
75414;BME280;64758;52.122;5.404;2023-07-20T08:42:04;101791.56;;;18.88;60.03
75414;BME280;64758;52.122;5.404;2023-07-20T08:44:33;101804.78;;;18.96;60.93
75414;BME280;64758;52.122;5.404;2023-07-20T08:47:02;101798.25;;;19.10;58.64
75414;BME280;64758;52.122;5.404;2023-07-20T08:49:33;101791.75;;;19.24;60.92
75414;BME280;64758;52.122;5.404;2023-07-20T08:52:00;101782.16;;;19.28;62.38
75414;BME280;64758;52.122;5.404;2023-07-20T08:54:30;101795.38;;;19.36;60.14
75414;BME280;64758;52.122;5.404;2023-07-20T08:57:03;101791.19;;;19.40;61.00
75414;BME280;64758;52.122;5.404;2023-07-20T08:59:30;101786.41;;;19.66;57.86
75414;BME280;64758;52.122;5.404;2023-07-20T09:01:58;101790.47;;;19.75;60.52
75414;BME280;64758;52.122;5.404;2023-07-20T09:04:25;101791.97;;;19.89;59.54
75414;BME280;64758;52.122;5.404;2023-07-20T09:06:52;101794.88;;;19.88;58.80
75414;BME280;64758;52.122;5.404;2023-07-20T09:09:19;101785.75;;;19.89;59.40
75414;BME280;64758;52.122;5.404;2023-07-20T09:11:49;101784.00;;;20.01;58.06
75414;BME280;64758;52.122;5.404;2023-07-20T09:14:15;101788.44;;;19.89;58.47
75414;BME280;64758;52.122;5.404;2023-07-20T09:16:50;101777.34;;;19.79;58.16
75414;BME280;64758;52.122;5.404;2023-07-20T09:19:17;101778.97;;;19.62;59.37
75414;BME280;64758;52.122;5.404;2023-07-20T09:21:45;101779.09;;;19.49;57.44
75414;BME280;64758;52.122;5.404;2023-07-20T09:24:12;101789.50;;;19.45;58.67
75414;BME280;64758;52.122;5.404;2023-07-20T09:26:41;101784.03;;;19.52;58.54
75414;BME280;64758;52.122;5.404;2023-07-20T09:29:09;101788.38;;;19.77;58.44
75414;BME280;64758;52.122;5.404;2023-07-20T09:31:37;101788.13;;;19.79;60.57
75414;BME280;64758;52.122;5.404;2023-07-20T09:34:06;101784.47;;;19.73;58.37
75414;BME280;64758;52.122;5.404;2023-07-20T09:36:35;101787.38;;;19.72;58.97
75414;BME280;64758;52.122;5.404;2023-07-20T09:39:05;101783.72;;;19.66;57.47
75414;BME280;64758;52.122;5.404;2023-07-20T09:41:41;101785.31;;;19.49;63.32
75414;BME280;64758;52.122;5.404;2023-07-20T09:44:14;101789.50;;;19.45;63.18
75414;BME280;64758;52.122;5.404;2023-07-20T09:46:45;101783.63;;;19.73;59.79
75414;BME280;64758;52.122;5.404;2023-07-20T09:49:16;101783.78;;;20.02;56.13
75414;BME280;64758;52.122;5.404;2023-07-20T09:51:46;101776.72;;;20.19;57.13
75414;BME280;64758;52.122;5.404;2023-07-20T09:54:13;101770.59;;;20.30;55.05
75414;BME280;64758;52.122;5.404;2023-07-20T09:56:41;101776.00;;;20.12;52.26
75414;BME280;64758;52.122;5.404;2023-07-20T09:59:08;101776.56;;;19.96;56.82
75414;BME280;64758;52.122;5.404;2023-07-20T10:01:36;101775.81;;;19.89;52.94
75414;BME280;64758;52.122;5.404;2023-07-20T10:04:07;101773.75;;;19.85;54.03
75414;BME280;64758;52.122;5.404;2023-07-20T10:06:39;101768.00;;;19.81;52.99
75414;BME280;64758;52.122;5.404;2023-07-20T10:09:10;101774.19;;;19.82;54.11
75414;BME280;64758;52.122;5.404;2023-07-20T10:11:41;101772.41;;;19.94;55.78
75414;BME280;64758;52.122;5.404;2023-07-20T10:14:11;101762.94;;;20.27;52.00
75414;BME280;64758;52.122;5.404;2023-07-20T10:16:43;101758.94;;;20.59;51.59
75414;BME280;64758;52.122;5.404;2023-07-20T10:19:42;101770.13;;;20.92;50.94
75414;BME280;64758;52.122;5.404;2023-07-20T10:22:25;101765.38;;;21.05;49.96
75414;BME280;64758;52.122;5.404;2023-07-20T10:24:52;101771.97;;;21.21;50.95
75414;BME280;64758;52.122;5.404;2023-07-20T10:27:20;101763.97;;;21.26;49.49
75414;BME280;64758;52.122;5.404;2023-07-20T10:29:47;101755.16;;;21.19;48.49
75414;BME280;64758;52.122;5.404;2023-07-20T10:32:14;101757.72;;;21.14;49.99
75414;BME280;64758;52.122;5.404;2023-07-20T10:34:41;101759.97;;;21.05;50.69
75414;BME280;64758;52.122;5.404;2023-07-20T10:37:07;101767.94;;;21.12;49.57
75414;BME280;64758;52.122;5.404;2023-07-20T10:39:34;101770.91;;;21.10;49.71
75414;BME280;64758;52.122;5.404;2023-07-20T10:42:11;101754.47;;;21.23;51.14
75414;BME280;64758;52.122;5.404;2023-07-20T10:44:41;101751.66;;;21.41;48.27
75414;BME280;64758;52.122;5.404;2023-07-20T10:47:12;101751.53;;;21.48;48.92
75414;BME280;64758;52.122;5.404;2023-07-20T10:49:59;101747.19;;;21.58;49.57
75414;BME280;64758;52.122;5.404;2023-07-20T10:52:36;101744.84;;;21.85;48.96
75414;BME280;64758;52.122;5.404;2023-07-20T10:55:16;101740.97;;;21.81;47.62
75414;BME280;64758;52.122;5.404;2023-07-20T10:57:43;101743.44;;;21.59;49.22
75414;BME280;64758;52.122;5.404;2023-07-20T11:00:13;101744.47;;;21.47;48.81
75414;BME280;64758;52.122;5.404;2023-07-20T11:02:48;101746.59;;;21.22;50.26
75414;BME280;64758;52.122;5.404;2023-07-20T11:05:37;101747.25;;;21.06;50.31
75414;BME280;64758;52.122;5.404;2023-07-20T11:08:09;101745.31;;;21.24;50.11
75414;BME280;64758;52.122;5.404;2023-07-20T11:10:36;101737.56;;;21.39;50.39
75414;BME280;64758;52.122;5.404;2023-07-20T11:13:19;101733.56;;;21.53;50.03
75414;BME280;64758;52.122;5.404;2023-07-20T11:16:12;101719.66;;;21.84;50.07
75414;BME280;64758;52.122;5.404;2023-07-20T11:18:39;101733.09;;;21.68;49.26
75414;BME280;64758;52.122;5.404;2023-07-20T11:21:08;101732.38;;;21.49;48.04
75414;BME280;64758;52.122;5.404;2023-07-20T11:23:37;101732.72;;;21.53;48.25
75414;BME280;64758;52.122;5.404;2023-07-20T11:26:04;101727.34;;;21.64;50.31
75414;BME280;64758;52.122;5.404;2023-07-20T11:28:33;101718.69;;;21.90;50.76
75414;BME280;64758;52.122;5.404;2023-07-20T11:31:00;101716.78;;;22.02;50.91
75414;BME280;64758;52.122;5.404;2023-07-20T11:33:27;101720.91;;;22.04;46.35
75414;BME280;64758;52.122;5.404;2023-07-20T11:35:53;101712.34;;;21.96;46.92
75414;BME280;64758;52.122;5.404;2023-07-20T11:38:21;101710.41;;;22.08;46.02
75414;BME280;64758;52.122;5.404;2023-07-20T11:40:47;101713.44;;;22.23;44.03
75414;BME280;64758;52.122;5.404;2023-07-20T11:43:14;101706.97;;;22.24;43.83
75414;BME280;64758;52.122;5.404;2023-07-20T11:45:45;101698.50;;;22.20;46.03
75414;BME280;64758;52.122;5.404;2023-07-20T11:48:15;101700.94;;;22.33;47.91
75414;BME280;64758;52.122;5.404;2023-07-20T11:50:42;101705.81;;;22.48;48.17
75414;BME280;64758;52.122;5.404;2023-07-20T11:53:09;101702.16;;;22.54;45.06
75414;BME280;64758;52.122;5.404;2023-07-20T11:55:36;101694.50;;;22.51;44.75
75414;BME280;64758;52.122;5.404;2023-07-20T11:58:04;101702.63;;;22.51;45.91
75414;BME280;64758;52.122;5.404;2023-07-20T12:00:32;101697.88;;;22.30;44.78
75414;BME280;64758;52.122;5.404;2023-07-20T12:02:59;101694.66;;;22.05;43.70
75414;BME280;64758;52.122;5.404;2023-07-20T12:05:26;101698.69;;;21.91;46.06
75414;BME280;64758;52.122;5.404;2023-07-20T12:07:54;101706.03;;;21.79;48.28
75414;BME280;64758;52.122;5.404;2023-07-20T12:10:26;101694.44;;;21.67;48.32
75414;BME280;64758;52.122;5.404;2023-07-20T12:12:52;101700.38;;;21.58;47.18
75414;BME280;64758;52.122;5.404;2023-07-20T12:15:25;101696.44;;;21.60;47.87
75414;BME280;64758;52.122;5.404;2023-07-20T12:17:53;101683.72;;;22.00;47.40
75414;BME280;64758;52.122;5.404;2023-07-20T12:23:13;101670.88;;;22.63;44.65
75414;BME280;64758;52.122;5.404;2023-07-20T12:25:45;101681.72;;;22.46;45.20
75414;BME280;64758;52.122;5.404;2023-07-20T12:28:14;101684.69;;;22.33;46.31
75414;BME280;64758;52.122;5.404;2023-07-20T12:30:43;101679.56;;;22.20;51.95
75414;BME280;64758;52.122;5.404;2023-07-20T12:33:11;101687.41;;;21.94;47.92
75414;BME280;64758;52.122;5.404;2023-07-20T12:35:38;101687.19;;;21.84;49.60
75414;BME280;64758;52.122;5.404;2023-07-20T12:38:05;101684.50;;;22.12;48.67
75414;BME280;64758;52.122;5.404;2023-07-20T12:40:34;101673.84;;;22.33;48.88
75414;BME280;64758;52.122;5.404;2023-07-20T12:43:00;101675.53;;;22.23;47.40
75414;BME280;64758;52.122;5.404;2023-07-20T12:45:27;101687.97;;;21.96;49.30
75414;BME280;64758;52.122;5.404;2023-07-20T12:47:54;101681.09;;;21.77;49.95
75414;BME280;64758;52.122;5.404;2023-07-20T12:50:20;101680.22;;;21.60;48.66
75414;BME280;64758;52.122;5.404;2023-07-20T12:52:47;101675.03;;;21.47;50.88
75414;BME280;64758;52.122;5.404;2023-07-20T12:55:13;101669.59;;;21.36;49.59
75414;BME280;64758;52.122;5.404;2023-07-20T12:57:41;101670.31;;;21.31;50.20
75414;BME280;64758;52.122;5.404;2023-07-20T13:00:09;101682.06;;;21.37;49.81
75414;BME280;64758;52.122;5.404;2023-07-20T13:02:37;101678.41;;;21.43;52.62
75414;BME280;64758;52.122;5.404;2023-07-20T13:05:04;101676.41;;;21.50;51.92
75414;BME280;64758;52.122;5.404;2023-07-20T13:07:37;101669.13;;;21.50;53.19